Time;durP1;ratioP1;P1;durP2;ratioP2;P2;SDS_P1;SDS_P2;PMS_P1;PMS_P2;Temp;Humidity;BMP_temperature;BMP_pressure;BME280_temperature;BME280_humidity;BME280_pressure;Samples;Min_cycle;Max_cycle;Signal;HPM_P1;HPM_P2
2022/05/16 00:01:20;;;;;;;;;;;;;;;21.35;42.28;101512.44;6121640;23;19967;-80
2022/05/16 00:03:46;;;;;;;;;;;;;;;21.36;42.24;101516.78;6170028;23;19908;-81
2022/05/16 00:06:11;;;;;;;;;;;;;;;21.34;42.04;101515.94;6120472;23;19963;-81
2022/05/16 00:08:37;;;;;;;;;;;;;;;21.35;42.23;101511.56;6123564;23;19917;-80
2022/05/16 00:11:02;;;;;;;;;;;;;;;21.39;42.21;101513.25;6179262;23;20335;-81
2022/05/16 00:13:27;;;;;;;;;;;;;;;21.39;42.19;101509.78;6152415;23;20326;-82
2022/05/16 00:15:53;;;;;;;;;;;;;;;21.36;42.15;101495.84;6150821;23;19944;-82
2022/05/16 00:18:18;;;;;;;;;;;;;;;21.33;42.25;101497.63;6122669;23;20102;-82
2022/05/16 00:20:44;;;;;;;;;;;;;;;21.35;42.10;101495.88;6144752;23;19917;-82
2022/05/16 00:23:09;;;;;;;;;;;;;;;21.35;42.43;101506.34;6118436;23;19913;-82
2022/05/16 00:25:34;;;;;;;;;;;;;;;21.36;42.37;101492.34;6140213;23;19919;-82
2022/05/16 00:28:00;;;;;;;;;;;;;;;21.32;42.15;101499.41;6142988;23;19987;-81
2022/05/16 00:30:25;;;;;;;;;;;;;;;21.32;42.47;101491.53;6118958;23;20322;-80
2022/05/16 00:32:50;;;;;;;;;;;;;;;21.32;42.38;101488.94;6142452;23;19915;-80
2022/05/16 00:35:18;;;;;;;;;;;;;;;21.31;42.54;101484.56;6142861;23;19908;-80
2022/05/16 00:37:43;;;;;;;;;;;;;;;21.28;42.64;101479.38;6143188;23;19909;-80
2022/05/16 00:40:09;;;;;;;;;;;;;;;21.28;42.67;101481.16;6142647;23;19909;-80
2022/05/16 00:42:35;;;;;;;;;;;;;;;21.28;42.54;101476.78;6169028;23;19923;-80
2022/05/16 00:45:01;;;;;;;;;;;;;;;21.29;42.77;101475.88;6143296;23;20226;-81
2022/05/16 00:47:26;;;;;;;;;;;;;;;21.29;42.54;101480.25;6143223;23;19969;-80
2022/05/16 00:55:45;;;;;;;;;;;;;;;21.24;42.56;101467.22;6159216;23;19920;-81
2022/05/16 00:58:12;;;;;;;;;;;;;;;21.25;42.88;101460.22;6160015;23;19912;-83
2022/05/16 01:00:39;;;;;;;;;;;;;;;21.26;42.95;101459.34;6185234;23;19905;-83
2022/05/16 01:05:57;;;;;;;;;;;;;;;21.23;42.63;101449.81;6173642;23;19905;-82
2022/05/16 01:14:38;;;;;;;;;;;;;;;21.25;42.77;101444.53;6172554;23;20329;-82
2022/05/16 01:19:39;;;;;;;;;;;;;;;21.23;42.87;101434.09;6183289;23;19921;-83
2022/05/16 01:25:18;;;;;;;;;;;;;;;21.22;42.76;101429.75;6155974;23;19911;-83
2022/05/16 01:27:46;;;;;;;;;;;;;;;21.23;42.64;101427.97;6160518;23;19904;-83
2022/05/16 01:33:02;;;;;;;;;;;;;;;21.24;42.64;101425.34;6188958;23;19911;-83
2022/05/16 01:35:48;;;;;;;;;;;;;;;21.27;42.84;101424.44;6185719;23;19940;-82
2022/05/16 01:44:09;;;;;;;;;;;;;;;21.28;42.80;101408.72;6167859;23;20919;-83
2022/05/16 01:49:28;;;;;;;;;;;;;;;21.25;42.70;101400.03;6156049;23;19901;-85
2022/05/16 02:00:42;;;;;;;;;;;;;;;21.26;42.80;101386.06;6171085;23;19933;-82
2022/05/16 02:10:53;;;;;;;;;;;;;;;21.26;42.88;101371.22;6173193;23;19905;-83
2022/05/16 02:13:18;;;;;;;;;;;;;;;21.29;42.79;101370.28;6160019;23;19913;-84
2022/05/16 02:43:39;;;;;;;;;;;;;;;21.28;42.76;101353.72;6165608;23;19917;-83
2022/05/16 03:30:57;;;;;;;;;;;;;;;21.14;42.66;101303.38;6152285;23;19927;-83
2022/05/16 03:56:19;;;;;;;;;;;;;;;21.20;42.54;101307.63;6155187;23;19936;-85
2022/05/16 03:58:51;;;;;;;;;;;;;;;21.25;42.55;101314.53;5999882;23;19922;-83
2022/05/16 04:12:16;;;;;;;;;;;;;;;21.27;42.46;101311.88;6148888;23;19911;-83
2022/05/16 04:15:09;;;;;;;;;;;;;;;21.24;42.54;101301.47;6116476;23;20678;-83
2022/05/16 04:38:39;;;;;;;;;;;;;;;21.28;42.07;101304.00;6151324;23;19921;-89
2022/05/16 04:43:41;;;;;;;;;;;;;;;21.33;41.90;101310.00;6166440;23;19926;-87
2022/05/16 04:46:07;;;;;;;;;;;;;;;21.32;41.95;101313.53;6125433;23;19953;-79
2022/05/16 04:48:39;;;;;;;;;;;;;;;21.34;41.94;101305.66;6108042;23;19913;-84
2022/05/16 04:51:23;;;;;;;;;;;;;;;21.36;41.80;101317.81;6123479;23;19908;-84
2022/05/16 05:24:18;;;;;;;;;;;;;;;21.81;41.68;101298.66;6153679;23;19913;-80
2022/05/16 05:31:53;;;;;;;;;;;;;;;21.84;41.57;101290.78;6133408;23;19912;-86
2022/05/16 05:36:54;;;;;;;;;;;;;;;21.86;41.50;101291.59;6148405;23;19921;-79
2022/05/16 05:39:20;;;;;;;;;;;;;;;21.86;41.37;101288.97;6110785;23;19919;-79
2022/05/16 05:41:45;;;;;;;;;;;;;;;21.88;41.07;101291.56;6109578;23;20349;-79
2022/05/16 05:44:11;;;;;;;;;;;;;;;21.89;41.05;101298.53;6109281;23;19940;-79
2022/05/16 05:46:37;;;;;;;;;;;;;;;21.87;40.96;101302.94;6113370;23;19913;-80
2022/05/16 05:49:03;;;;;;;;;;;;;;;21.90;41.39;101303.72;6140767;23;19949;-80
2022/05/16 05:51:28;;;;;;;;;;;;;;;21.94;41.33;101309.78;6165979;23;19987;-80
2022/05/16 05:53:53;;;;;;;;;;;;;;;21.97;41.34;101314.94;6113163;23;19964;-81
2022/05/16 05:56:18;;;;;;;;;;;;;;;21.98;41.20;101314.91;6136480;23;20229;-80
2022/05/16 05:58:46;;;;;;;;;;;;;;;21.98;41.14;101322.78;6135826;23;19919;-81
2022/05/16 06:01:11;;;;;;;;;;;;;;;21.99;41.24;101328.88;6110357;23;19913;-80
2022/05/16 06:03:36;;;;;;;;;;;;;;;21.99;41.11;101315.78;6160020;23;20318;-80
2022/05/16 06:06:02;;;;;;;;;;;;;;;21.99;41.15;101326.25;6110721;23;19947;-81
2022/05/16 06:08:27;;;;;;;;;;;;;;;22.02;40.92;101327.97;6140461;23;19913;-81
2022/05/16 06:10:52;;;;;;;;;;;;;;;22.00;41.41;101321.91;6137011;23;19909;-79
2022/05/16 06:13:18;;;;;;;;;;;;;;;22.00;41.10;101335.00;6136772;23;19943;-79
2022/05/16 06:15:43;;;;;;;;;;;;;;;21.99;41.15;101331.50;6111249;23;19919;-79
2022/05/16 06:18:08;;;;;;;;;;;;;;;22.00;41.12;101338.47;6162125;23;19908;-79
2022/05/16 06:23:46;;;;;;;;;;;;;;;21.97;41.27;101342.03;6171862;23;19944;-85
2022/05/16 06:26:12;;;;;;;;;;;;;;;21.97;41.01;101338.53;6159386;23;19916;-85
2022/05/16 06:28:38;;;;;;;;;;;;;;;21.98;41.16;101345.50;6133614;23;19901;-85
2022/05/16 06:31:04;;;;;;;;;;;;;;;21.97;41.12;101347.28;6158539;23;19900;-85
2022/05/16 06:33:29;;;;;;;;;;;;;;;21.96;40.79;101348.16;6133137;23;19929;-88
2022/05/16 06:35:55;;;;;;;;;;;;;;;21.96;41.06;101339.44;6153595;23;19915;-85
2022/05/16 06:38:22;;;;;;;;;;;;;;;21.96;40.88;101344.66;6181910;23;19909;-86
2022/05/16 06:40:48;;;;;;;;;;;;;;;21.95;40.74;101343.81;6155513;23;19919;-86
2022/05/16 06:43:13;;;;;;;;;;;;;;;21.96;40.81;101350.78;6156687;23;19960;-86
2022/05/16 06:45:38;;;;;;;;;;;;;;;21.95;40.73;101350.81;6156786;23;19893;-86
2022/05/16 06:48:04;;;;;;;;;;;;;;;21.95;40.73;101362.16;6148560;23;20326;-87
2022/05/16 06:50:30;;;;;;;;;;;;;;;21.94;40.79;101360.41;6153521;23;19893;-85
2022/05/16 06:53:09;;;;;;;;;;;;;;;;;;;;;
2022/05/16 06:55:34;;;;;;;;;;;;;;;21.93;40.72;101363.94;6181484;23;19892;-84
2022/05/16 06:58:00;;;;;;;;;;;;;;;21.93;40.77;101363.94;6158300;23;19899;-83
2022/05/16 07:00:26;;;;;;;;;;;;;;;21.92;40.86;101361.34;6157116;23;19960;-86
2022/05/16 07:02:51;;;;;;;;;;;;;;;21.91;40.81;101360.50;6157824;23;19920;-85
2022/05/16 07:05:17;;;;;;;;;;;;;;;21.91;40.87;101360.50;6159010;23;19901;-83
2022/05/16 07:07:42;;;;;;;;;;;;;;;21.90;40.84;101355.25;6157841;23;19960;-85
2022/05/16 07:10:07;;;;;;;;;;;;;;;21.90;40.95;101360.50;6156828;23;19913;-86
2022/05/16 07:12:33;;;;;;;;;;;;;;;21.90;40.94;101360.50;6155021;23;19924;-84
2022/05/16 07:14:58;;;;;;;;;;;;;;;21.88;40.87;101357.91;6182935;23;19896;-88
2022/05/16 07:17:23;;;;;;;;;;;;;;;21.89;40.94;101358.81;6156709;23;19917;-85
2022/05/16 07:19:49;;;;;;;;;;;;;;;21.88;41.19;101352.66;6184025;23;19897;-85
2022/05/16 07:22:15;;;;;;;;;;;;;;;21.88;41.19;101357.91;6156966;23;19905;-86
2022/05/16 07:24:42;;;;;;;;;;;;;;;21.88;41.05;101357.06;6158113;23;19909;-84
2022/05/16 07:29:52;;;;;;;;;;;;;;;21.88;41.32;101355.28;6153849;23;19920;-85
2022/05/16 07:32:18;;;;;;;;;;;;;;;21.89;41.04;101356.19;6155251;23;19947;-87
2022/05/16 07:34:43;;;;;;;;;;;;;;;21.89;41.17;101356.19;6154745;23;20380;-85
2022/05/16 07:37:09;;;;;;;;;;;;;;;21.92;41.05;101361.34;6155111;23;19908;-85
2022/05/16 07:39:35;;;;;;;;;;;;;;;21.91;41.08;101355.25;6153542;23;19928;-86
2022/05/16 07:42:01;;;;;;;;;;;;;;;21.92;41.05;101359.59;6154243;23;20376;-86
2022/05/16 07:44:26;;;;;;;;;;;;;;;21.93;41.16;101357.84;6177941;23;19917;-86
2022/05/16 07:46:51;;;;;;;;;;;;;;;21.93;41.24;101363.94;6147981;23;19908;-86
2022/05/16 07:49:18;;;;;;;;;;;;;;;21.95;41.42;101350.81;6128976;23;19917;-87
2022/05/16 07:51:43;;;;;;;;;;;;;;;21.95;41.29;101359.53;6153227;23;19948;-86
2022/05/16 07:54:08;;;;;;;;;;;;;;;21.96;41.45;101363.00;6128461;23;20285;-85
2022/05/16 07:56:34;;;;;;;;;;;;;;;21.97;41.36;101369.97;6153753;23;19912;-86
2022/05/16 07:59:00;;;;;;;;;;;;;;;21.98;41.35;101372.56;6153985;23;19983;-89
2022/05/16 08:01:25;;;;;;;;;;;;;;;21.98;41.28;101377.81;6152383;23;19951;-87
2022/05/16 08:03:50;;;;;;;;;;;;;;;21.98;41.44;101380.44;6127997;23;19917;-86
2022/05/16 08:06:16;;;;;;;;;;;;;;;21.98;41.28;101390.91;6154076;23;19915;-85
2022/05/16 08:11:25;;;;;;;;;;;;;;;22.01;41.22;101402.22;6175226;23;19916;-86
2022/05/16 08:13:50;;;;;;;;;;;;;;;22.00;41.42;101397.91;6152494;23;19912;-86
2022/05/16 08:16:16;;;;;;;;;;;;;;;22.00;41.35;101395.28;6151561;23;19908;-87
2022/05/16 08:18:41;;;;;;;;;;;;;;;21.99;41.34;101394.38;6128258;23;19940;-86
2022/05/16 08:21:08;;;;;;;;;;;;;;;22.00;41.53;101390.03;6150370;23;19908;-88
2022/05/16 08:23:34;;;;;;;;;;;;;;;22.00;41.42;101405.75;6173133;23;19920;-86
2022/05/16 08:26:01;;;;;;;;;;;;;;;22.00;41.51;101397.91;6142158;23;19908;-87
2022/05/16 08:28:26;;;;;;;;;;;;;;;22.00;41.41;101392.66;6120168;23;19923;-87
2022/05/16 08:30:52;;;;;;;;;;;;;;;22.00;41.70;101400.53;6123807;23;19901;-86
2022/05/16 08:33:18;;;;;;;;;;;;;;;22.01;41.50;101403.09;6144577;23;19909;-86
2022/05/16 08:35:43;;;;;;;;;;;;;;;22.02;41.59;101409.22;6121118;23;19913;-86
2022/05/16 08:40:58;;;;;;;;;;;;;;;22.02;41.56;101415.31;6159462;23;19915;-86
2022/05/16 08:43:42;;;;;;;;;;;;;;;22.02;41.74;101414.47;6151134;23;19967;-87
2022/05/16 08:46:16;;;;;;;;;;;;;;;22.03;41.67;101416.16;6154676;23;19920;-86
2022/05/16 08:48:45;;;;;;;;;;;;;;;22.03;41.55;101424.03;6152400;23;19916;-87
2022/05/16 08:51:21;;;;;;;;;;;;;;;22.03;41.76;101418.78;6151418;23;19908;-86
2022/05/16 08:53:49;;;;;;;;;;;;;;;22.03;41.51;101430.13;6144392;23;19909;-87
2022/05/16 08:56:25;;;;;;;;;;;;;;;22.03;41.51;101430.13;6175371;23;19933;-85
2022/05/16 08:59:01;;;;;;;;;;;;;;;22.04;41.86;101429.25;6151717;23;19924;-86
2022/05/16 09:01:26;;;;;;;;;;;;;;;22.05;41.72;101430.13;6150909;23;19915;-86
2022/05/16 09:03:58;;;;;;;;;;;;;;;22.08;41.72;101428.31;6174837;23;19908;-87
2022/05/16 09:06:32;;;;;;;;;;;;;;;22.10;41.72;101426.53;6146595;23;19908;-85
2022/05/16 09:09:11;;;;;;;;;;;;;;;22.11;41.86;101427.38;6147793;23;19919;-85
2022/05/16 09:11:55;;;;;;;;;;;;;;;22.12;41.62;101421.22;6148568;23;19909;-87
2022/05/16 09:14:39;;;;;;;;;;;;;;;22.13;41.82;101422.97;6150522;23;19917;-86
2022/05/16 09:17:10;;;;;;;;;;;;;;;22.14;41.91;101422.06;6150329;23;20336;-86
2022/05/16 09:19:54;;;;;;;;;;;;;;;22.16;41.84;101422.91;6150379;23;19908;-86
2022/05/16 09:22:38;;;;;;;;;;;;;;;22.16;41.76;101425.53;6148257;23;19909;-86
2022/05/16 09:25:08;;;;;;;;;;;;;;;22.15;41.82;101429.06;6145638;23;19912;-85
2022/05/16 09:30:45;;;;;;;;;;;;;;;22.16;41.98;101436.88;5755310;23;9381379;-85
2022/05/16 09:33:13;;;;;;;;;;;;;;;22.16;41.99;101434.25;6146072;23;19912;-87
2022/05/16 09:45:12;;;;;;;;;;;;;;;22.17;41.96;101487.56;6170203;23;19904;-87
2022/05/16 09:47:40;;;;;;;;;;;;;;;22.18;41.97;101494.50;6148854;23;19928;-86
2022/05/16 09:50:07;;;;;;;;;;;;;;;22.17;42.13;101491.03;6171107;23;19913;-86
2022/05/16 09:52:35;;;;;;;;;;;;;;;22.17;42.10;101503.28;6144106;23;19924;-86
2022/05/16 09:55:02;;;;;;;;;;;;;;;22.17;42.16;101503.28;6147014;23;19931;-86
2022/05/16 09:57:27;;;;;;;;;;;;;;;22.17;42.23;101516.41;6146915;23;19909;-86
2022/05/16 10:00:00;;;;;;;;;;;;;;;22.17;42.24;101513.78;6125157;23;19912;-86
2022/05/16 10:02:33;;;;;;;;;;;;;;;22.18;42.10;101515.50;6150705;23;19908;-85
2022/05/16 10:05:06;;;;;;;;;;;;;;;22.17;42.30;101517.25;6152692;23;19924;-85
2022/05/16 10:07:42;;;;;;;;;;;;;;;22.17;42.20;101508.53;6176567;23;19908;-84
2022/05/16 10:10:10;;;;;;;;;;;;;;;22.17;42.09;101519.88;6153311;23;19912;-86
2022/05/16 10:12:35;;;;;;;;;;;;;;;22.17;42.33;101519.88;6151346;23;19908;-86
2022/05/16 10:15:00;;;;;;;;;;;;;;;22.18;42.36;101526.84;6150807;23;19920;-85
2022/05/16 10:17:32;;;;;;;;;;;;;;;22.18;42.37;101524.22;6146234;23;19908;-85
2022/05/16 10:20:00;;;;;;;;;;;;;;;22.18;42.26;101521.59;6153322;23;19905;-86
2022/05/16 10:22:26;;;;;;;;;;;;;;;22.18;42.49;101518.13;6147333;23;19987;-85
2022/05/16 10:24:54;;;;;;;;;;;;;;;22.18;42.45;101516.34;6151636;23;19977;-85
2022/05/16 10:27:31;;;;;;;;;;;;;;;22.19;42.55;101517.25;6151732;23;19909;-86
2022/05/16 10:29:59;;;;;;;;;;;;;;;22.19;42.51;101520.72;6151691;23;19909;-87
2022/05/16 10:35:26;;;;;;;;;;;;;;;22.21;42.60;101525.94;6169627;23;19936;-86
2022/05/16 10:37:53;;;;;;;;;;;;;;;22.21;42.57;101539.03;6147089;23;19909;-87
2022/05/16 10:40:41;;;;;;;;;;;;;;;22.21;42.39;101540.78;6173308;23;19916;-86
2022/05/16 10:43:06;;;;;;;;;;;;;;;22.21;42.54;101538.16;6152334;23;19924;-86
2022/05/16 10:45:32;;;;;;;;;;;;;;;22.21;42.45;101553.88;6150496;23;19995;-85
2022/05/16 10:47:58;;;;;;;;;;;;;;;22.20;42.75;101558.28;6122738;23;19917;-86
2022/05/16 10:50:27;;;;;;;;;;;;;;;22.19;42.86;101564.41;6145347;23;19893;-85
2022/05/16 10:52:53;;;;;;;;;;;;;;;22.20;42.71;101584.50;6176242;23;19908;-88
2022/05/16 10:55:18;;;;;;;;;;;;;;;22.18;42.80;101584.50;6141841;23;20384;-85
2022/05/16 10:57:47;;;;;;;;;;;;;;;22.19;42.81;101595.88;6119399;23;19919;-86
2022/05/16 11:00:14;;;;;;;;;;;;;;;22.18;42.67;101605.47;6143280;23;19916;-86
2022/05/16 11:02:59;;;;;;;;;;;;;;;22.17;42.84;101608.16;6145703;23;19913;-87
2022/05/16 11:05:38;;;;;;;;;;;;;;;22.16;42.99;101609.88;6176170;23;19920;-87
2022/05/16 11:08:29;;;;;;;;;;;;;;;22.15;43.02;101597.69;6145840;23;19912;-86
2022/05/16 11:10:58;;;;;;;;;;;;;;;22.16;43.26;101603.78;6151049;23;19957;-86
2022/05/16 11:13:36;;;;;;;;;;;;;;;22.17;43.26;101605.53;6172897;23;19948;-87
2022/05/16 11:16:15;;;;;;;;;;;;;;;22.17;43.66;101606.38;6145174;23;19963;-86
2022/05/16 11:18:47;;;;;;;;;;;;;;;22.18;43.41;101596.75;6148186;23;19932;-86
2022/05/16 11:21:21;;;;;;;;;;;;;;;22.18;43.30;101592.38;6150878;23;19919;-86
2022/05/16 11:23:58;;;;;;;;;;;;;;;22.19;43.46;101601.97;6149732;23;19909;-87
2022/05/16 11:26:31;;;;;;;;;;;;;;;22.21;43.82;101603.69;6175812;23;19909;-86
2022/05/16 11:29:18;;;;;;;;;;;;;;;22.19;43.87;101599.38;6149577;23;19963;-88
2022/05/16 11:32:03;;;;;;;;;;;;;;;22.22;43.88;101605.44;6148841;23;19931;-86
2022/05/16 11:34:28;;;;;;;;;;;;;;;22.22;44.08;101616.81;6148551;23;19943;-86
2022/05/16 11:36:58;;;;;;;;;;;;;;;22.22;44.39;101621.19;6147880;23;19909;-86
2022/05/16 11:39:37;;;;;;;;;;;;;;;22.22;44.36;101622.06;6170580;23;19981;-85
2022/05/16 11:42:21;;;;;;;;;;;;;;;22.23;44.54;101623.78;6148292;23;19915;-87
2022/05/16 11:44:50;;;;;;;;;;;;;;;22.23;44.46;101625.53;6145804;23;19943;-87
2022/05/16 11:47:18;;;;;;;;;;;;;;;22.22;44.62;101618.56;6147340;23;19920;-87
2022/05/16 11:50:02;;;;;;;;;;;;;;;22.22;44.68;101624.69;6145839;23;19936;-86
2022/05/16 11:52:42;;;;;;;;;;;;;;;22.24;44.82;101635.16;6148035;23;19916;-86
2022/05/16 12:00:31;;;;;;;;;;;;;;;22.24;44.37;101645.66;6147017;23;19953;-85
2022/05/16 12:00:56;;;;;;;;;;;;;;;22.25;44.85;101660.47;6171650;23;19916;-86
2022/05/16 12:03:21;;;;;;;;;;;;;;;22.25;44.81;101657.84;6150179;23;19971;-85
2022/05/16 12:05:51;;;;;;;;;;;;;;;22.25;44.65;101655.22;6145305;23;19947;-86
2022/05/16 12:08:31;;;;;;;;;;;;;;;22.24;44.79;101656.13;6148600;23;19920;-86
2022/05/16 12:11:06;;;;;;;;;;;;;;;22.22;44.86;101658.78;6149946;23;19924;-85
2022/05/16 12:13:39;;;;;;;;;;;;;;;22.22;44.74;101660.50;6177600;23;19955;-86
2022/05/16 12:16:15;;;;;;;;;;;;;;;22.21;44.87;101664.00;6152652;23;19932;-86
2022/05/16 12:18:43;;;;;;;;;;;;;;;22.20;44.85;101660.50;6156400;23;19936;-84
2022/05/16 12:21:21;;;;;;;;;;;;;;;22.19;44.64;101661.41;6147361;23;19915;-85
2022/05/16 12:23:50;;;;;;;;;;;;;;;22.19;44.75;101656.19;6151830;23;19955;-87
2022/05/16 12:26:28;;;;;;;;;;;;;;;22.18;44.94;101664.91;6148871;23;19919;-86
2022/05/16 12:29:08;;;;;;;;;;;;;;;22.18;44.94;101662.28;6152220;23;19932;-86
2022/05/16 12:31:49;;;;;;;;;;;;;;;22.18;45.12;101659.69;6151700;23;19916;-87
2022/05/16 12:34:38;;;;;;;;;;;;;;;22.17;45.15;101668.44;6178718;23;19921;-85
2022/05/16 12:37:14;;;;;;;;;;;;;;;22.15;45.15;101665.84;6152412;23;19908;-85
2022/05/16 12:39:59;;;;;;;;;;;;;;;22.15;44.92;101660.59;6150843;23;19908;-86
2022/05/16 12:42:48;;;;;;;;;;;;;;;22.16;45.12;101658.81;6148774;23;19909;-86
2022/05/16 12:45:32;;;;;;;;;;;;;;;22.16;44.95;101667.56;6152229;23;19961;-85
2022/05/16 12:48:16;;;;;;;;;;;;;;;22.16;44.87;101675.41;6151060;23;19916;-86
2022/05/16 12:53:49;;;;;;;;;;;;;;;22.20;44.82;101671.00;6170657;23;19975;-87
2022/05/16 12:56:23;;;;;;;;;;;;;;;22.22;44.77;101684.09;6150033;23;19912;-86
2022/05/16 12:58:57;;;;;;;;;;;;;;;22.24;44.68;101682.34;6142470;23;19934;-88
2022/05/16 13:01:34;;;;;;;;;;;;;;;22.25;44.75;101686.69;6147461;23;19972;-85
2022/05/16 13:04:25;;;;;;;;;;;;;;;22.25;44.80;101690.16;6144771;23;19963;-86
2022/05/16 13:06:57;;;;;;;;;;;;;;;22.26;44.73;101684.06;6173679;23;19916;-87
2022/05/16 13:09:28;;;;;;;;;;;;;;;22.27;44.83;101693.63;6145247;23;19943;-87
2022/05/16 13:12:12;;;;;;;;;;;;;;;22.27;45.09;101692.78;6145558;23;20262;-87
2022/05/16 13:14:56;;;;;;;;;;;;;;;22.28;45.49;101695.38;6148360;23;19909;-88
2022/05/16 13:17:38;;;;;;;;;;;;;;;22.28;45.57;101700.63;6148694;23;19978;-88
2022/05/16 13:20:16;;;;;;;;;;;;;;;22.28;45.51;101713.75;6146633;23;19917;-85
2022/05/16 13:22:42;;;;;;;;;;;;;;;22.27;45.27;101698.88;6148120;23;19909;-87
2022/05/16 13:25:07;;;;;;;;;;;;;;;22.28;45.28;101695.38;6122727;23;19932;-86
2022/05/16 13:30:18;;;;;;;;;;;;;;;22.30;45.59;101705.84;6172034;23;20389;-85
2022/05/16 13:32:43;;;;;;;;;;;;;;;22.30;45.32;101708.47;6145017;23;19920;-86
2022/05/16 13:35:11;;;;;;;;;;;;;;;22.30;45.68;101706.72;6144373;23;19948;-87
2022/05/16 13:37:43;;;;;;;;;;;;;;;22.30;45.24;101703.25;6142679;23;19963;-86
2022/05/16 13:40:13;;;;;;;;;;;;;;;22.29;45.26;101704.97;6143385;23;20290;-87
2022/05/16 13:42:43;;;;;;;;;;;;;;;22.29;45.20;101711.97;6141209;23;19918;-86
2022/05/16 13:45:08;;;;;;;;;;;;;;;22.28;45.37;101705.88;6143543;23;19909;-86
2022/05/16 13:47:38;;;;;;;;;;;;;;;22.29;45.30;101709.34;6143335;23;19967;-85
2022/05/16 13:50:04;;;;;;;;;;;;;;;22.29;44.85;101704.09;6146215;23;19948;-87
2022/05/16 13:52:30;;;;;;;;;;;;;;;22.28;45.19;101707.63;6119695;23;19920;-87
2022/05/16 13:54:59;;;;;;;;;;;;;;;22.27;45.22;101706.75;6170731;23;19908;-86
2022/05/16 13:57:26;;;;;;;;;;;;;;;22.29;45.40;101718.06;6145620;23;19956;-86
2022/05/16 14:00:12;;;;;;;;;;;;;;;22.30;45.24;101718.97;6144873;23;19912;-86
2022/05/16 14:02:39;;;;;;;;;;;;;;;22.30;45.35;101717.22;6147245;23;19909;-87
2022/05/16 14:05:10;;;;;;;;;;;;;;;22.31;45.14;101726.78;6144894;23;19913;-85
2022/05/16 14:07:36;;;;;;;;;;;;;;;22.31;45.21;101724.16;6148504;23;19977;-85
2022/05/16 14:10:04;;;;;;;;;;;;;;;22.32;44.87;101723.28;6147569;23;19908;-89
2022/05/16 14:12:44;;;;;;;;;;;;;;;22.31;45.24;101726.78;6147170;23;20310;-87
2022/05/16 14:15:15;;;;;;;;;;;;;;;22.32;45.05;101727.66;6147684;23;19909;-85
2022/05/16 14:17:42;;;;;;;;;;;;;;;22.33;45.13;101745.13;6173573;23;19908;-86
2022/05/16 14:20:11;;;;;;;;;;;;;;;22.32;45.11;101741.66;6144624;23;19908;-85
2022/05/16 14:22:40;;;;;;;;;;;;;;;22.34;44.93;101747.75;6171078;23;19924;-89
2022/05/16 14:25:08;;;;;;;;;;;;;;;22.34;44.66;101746.84;6143732;23;19916;-84
2022/05/16 14:27:35;;;;;;;;;;;;;;;22.34;45.13;101750.38;6142476;23;19928;-86
2022/05/16 14:30:21;;;;;;;;;;;;;;;22.35;45.11;101761.72;6142400;23;19916;-86
2022/05/16 14:32:48;;;;;;;;;;;;;;;22.34;44.73;101765.22;6140928;23;19912;-87
2022/05/16 14:35:18;;;;;;;;;;;;;;;22.34;44.82;101760.84;6140926;23;19909;-86
2022/05/16 14:37:44;;;;;;;;;;;;;;;22.34;45.07;101763.47;6141697;23;19920;-86
2022/05/16 14:40:11;;;;;;;;;;;;;;;22.35;44.93;101762.56;6139261;23;19909;-87
2022/05/16 14:42:41;;;;;;;;;;;;;;;22.34;44.78;101766.09;6138480;23;19910;-86
2022/05/16 14:45:15;;;;;;;;;;;;;;;22.35;45.02;101761.72;6137603;23;19928;-86
2022/05/16 14:47:43;;;;;;;;;;;;;;;22.35;44.53;101769.56;6138560;23;19909;-87
2022/05/16 14:50:08;;;;;;;;;;;;;;;22.35;44.73;101761.72;6138630;23;19908;-85
2022/05/16 14:52:35;;;;;;;;;;;;;;;22.35;44.86;101773.06;6139017;23;19924;-85
2022/05/16 14:55:07;;;;;;;;;;;;;;;22.36;44.88;101771.28;6138237;23;19909;-86
2022/05/16 14:57:32;;;;;;;;;;;;;;;22.35;44.86;101766.97;6140653;23;19909;-88
2022/05/16 14:59:58;;;;;;;;;;;;;;;22.35;44.83;101772.19;6170742;23;19915;-87
2022/05/16 15:05:07;;;;;;;;;;;;;;;22.37;45.01;101773.91;6144888;23;19932;-85
2022/05/16 15:07:36;;;;;;;;;;;;;;;22.37;44.99;101766.03;6114709;23;19912;-86
2022/05/16 15:10:02;;;;;;;;;;;;;;;22.37;44.83;101766.03;6136958;23;20322;-85
2022/05/16 15:12:28;;;;;;;;;;;;;;;22.36;44.83;101759.06;6136380;23;19931;-85
2022/05/16 15:14:53;;;;;;;;;;;;;;;22.36;44.81;101766.94;6116476;23;20318;-85
2022/05/16 15:17:19;;;;;;;;;;;;;;;22.38;44.81;101769.53;6138986;23;19909;-84
2022/05/16 15:19:44;;;;;;;;;;;;;;;22.38;45.03;101753.78;6114249;23;19987;-86
2022/05/16 15:22:12;;;;;;;;;;;;;;;22.38;44.54;101767.78;6112940;23;20000;-86
2022/05/16 15:24:39;;;;;;;;;;;;;;;22.36;44.64;101766.94;6137062;23;19913;-87
2022/05/16 15:27:09;;;;;;;;;;;;;;;22.38;44.92;101766.91;6138010;23;19923;-86
2022/05/16 15:29:36;;;;;;;;;;;;;;;22.37;44.85;101773.91;6162707;23;19920;-86
2022/05/16 15:32:09;;;;;;;;;;;;;;;22.35;44.76;101767.81;6139652;23;19913;-86
2022/05/16 15:34:35;;;;;;;;;;;;;;;22.37;44.87;101783.53;6115864;23;19912;-86
2022/05/16 15:37:20;;;;;;;;;;;;;;;22.35;44.93;101783.56;6113983;23;19913;-86
2022/05/16 15:39:49;;;;;;;;;;;;;;;22.35;44.88;101780.06;6137860;23;19909;-85
2022/05/16 15:42:15;;;;;;;;;;;;;;;22.35;44.88;101780.06;6141892;23;19909;-85
2022/05/16 15:44:44;;;;;;;;;;;;;;;22.34;44.57;101783.56;6142192;23;19916;-86
2022/05/16 15:47:13;;;;;;;;;;;;;;;22.34;44.91;101781.84;6120877;23;19912;-86
2022/05/16 15:49:39;;;;;;;;;;;;;;;22.34;44.96;101783.56;6131823;23;20255;-79
2022/05/16 15:52:04;;;;;;;;;;;;;;;22.35;44.81;101787.94;6132902;23;19952;-79
2022/05/16 15:54:33;;;;;;;;;;;;;;;22.34;44.89;101788.81;6131786;23;19928;-81
2022/05/16 15:56:58;;;;;;;;;;;;;;;22.34;44.84;101796.66;6131181;23;19917;-80
2022/05/16 15:59:24;;;;;;;;;;;;;;;22.33;44.48;101790.56;6130984;23;20219;-80
2022/05/16 16:01:49;;;;;;;;;;;;;;;22.34;44.61;101799.28;6106889;23;19920;-79
2022/05/16 16:09:42;;;;;;;;;;;;;;;22.33;44.75;101785.31;6142487;23;19948;-84
2022/05/16 16:12:09;;;;;;;;;;;;;;;22.34;44.82;101787.06;6110879;23;19912;-85
2022/05/16 16:14:34;;;;;;;;;;;;;;;22.34;44.68;101783.56;6136704;23;19916;-86
2022/05/16 16:17:00;;;;;;;;;;;;;;;22.34;44.76;101786.19;6106594;23;19995;-80
2022/05/16 16:19:27;;;;;;;;;;;;;;;22.32;44.92;101786.22;6106836;23;19912;-79
2022/05/16 16:21:53;;;;;;;;;;;;;;;22.33;44.82;101790.56;6131042;23;19939;-80
2022/05/16 16:24:18;;;;;;;;;;;;;;;22.33;44.87;101797.56;6131051;23;20318;-80
2022/05/16 16:26:44;;;;;;;;;;;;;;;22.38;45.10;101801.88;6133052;23;19909;-81
2022/05/16 16:29:10;;;;;;;;;;;;;;;22.47;44.89;101800.88;6132713;23;20001;-80
2022/05/16 16:31:35;;;;;;;;;;;;;;;22.42;44.77;101793.97;6131738;23;20340;-79
2022/05/16 16:34:01;;;;;;;;;;;;;;;22.36;45.01;101794.91;6108782;23;20314;-80
2022/05/16 16:36:26;;;;;;;;;;;;;;;22.32;45.23;101791.47;6131683;23;20396;-80
2022/05/16 16:38:51;;;;;;;;;;;;;;;22.31;45.34;101788.88;6131924;23;19913;-80
2022/05/16 16:41:17;;;;;;;;;;;;;;;22.30;45.48;101788.00;6107195;23;19920;-80
2022/05/16 16:43:47;;;;;;;;;;;;;;;22.30;45.21;101792.38;6131459;23;19909;-80
2022/05/16 16:46:15;;;;;;;;;;;;;;;22.29;45.47;101790.63;6131118;23;20345;-80
2022/05/16 16:48:40;;;;;;;;;;;;;;;22.29;45.43;101794.13;6131665;23;19913;-80
2022/05/16 16:57:27;;;;;;;;;;;;;;;22.27;45.46;101795.91;6133554;23;19996;-80
2022/05/16 16:59:31;;;;;;;;;;;;;;;22.26;45.51;101793.31;6141783;23;19920;-81
2022/05/16 17:01:56;;;;;;;;;;;;;;;22.28;45.28;101791.53;6160887;23;19912;-79
2022/05/16 17:04:21;;;;;;;;;;;;;;;22.29;45.45;101796.75;6133508;23;19947;-79
2022/05/16 17:06:46;;;;;;;;;;;;;;;22.30;45.55;101797.63;6133379;23;19916;-80
2022/05/16 17:09:12;;;;;;;;;;;;;;;22.30;45.48;101797.63;6110473;23;19924;-81
2022/05/16 17:11:37;;;;;;;;;;;;;;;22.29;45.14;101799.38;6133136;23;20215;-80
2022/05/16 17:14:03;;;;;;;;;;;;;;;22.30;45.43;101798.50;6133595;23;19935;-80
2022/05/16 17:16:28;;;;;;;;;;;;;;;22.33;45.66;101805.44;6109773;23;19995;-80